Main page
METAR-TAF:

METAR-TAF

Airports :

Jay Prakash Narayan International Airport

Patna, India

latitude: 25-36N, longitude: 085-06E, elevation: 51 m

Current weather observation

The report was made 36 minutes ago, at 17:00 UTC
Wind 4 kt from the West/Southwest
Temperature 25°C
Humidity 44%
Pressure 1010 hPa
Visibility: 4000 m
haze

METAR: VEPT 221700Z 25004KT 4000 HZ NSC 25/12 Q1010 NOSIG

Time: 23:06 (17:36 UTC)

Forecast

The report was made 3 hours and 36 minutes ago, at 14:00 UTC
Forecast valid from 22 at 15 UTC to 22 at 24 UTC
Wind 5 kt from the West
Visibility: 4000 m
haze
Becoming
from 22 at 20 UTC to 22 at 22 UTC
Visibility: 3000 m
Scattered clouds at a height of 2000 ft
Scattered clouds at a height of 10000 ft
haze

TAF: VEPT 221400Z 2215/2224 27005KT 4000 HZ NSC BECMG 2220/2222 3000 HZ SCT020 SCT100

Weather observations and forecasts of more than 4000 airports (METAR and TAF reports).

The available stations are represented by yellow and red dots on the map.

Hover mouse over dot to see the name of the station.

Then click to see weather observations and forecasts.

To change the map : click on the green buttons with a black cross to zoom in, on the green button with a dash to zoom out, or on the green arrows for adjacent maps.


METAR-TAF: